52NY weather

Bedson's Land Base Airport
Honeoye Falls, New York, United States

Public forecast

Using degrees Fahrenheit for public forecast. Weather courtesy of forecast.io.

METAR (pilot weather report)

Closest report is Greater Rochester International Airport, 11.4 nm (21.1 km) N. Retrieved 2019/05/23 09:54 UTC (53 minutes ago):

KROC 230954Z 19004KT 10SM FEW070 FEW110 BKN180 OVC250 16/11 A3001 RMK AO2 SLP163 T01560111

TAF (pilot weather forecast)

Closest forecast is Greater Rochester International Airport, 11.4 nm (21.1 km) N. Retrieved 2019/05/23 06:39 UTC (4 hours ago):

TAF KROC 230535Z 2306/2406 18007KT P6SM FEW250 FM231400 21007KT P6SM BKN120 FM231600 23011G24KT 5SM -TSRA BR BKN050CB FM231800 25020G38KT P6SM -SHRA BKN035 FM232000 26020G30KT P6SM SCT120 FM240300 28010KT P6SM SCT045